sensor_id;sensor_type;location;lat;lon;timestamp;P1;durP1;ratioP1;P2;durP2;ratioP2
7497;SDS011;3790;48.806;9.140;2022-09-17T00:00:24;0.70;;;0.50;;
7497;SDS011;3790;48.806;9.140;2022-09-17T00:05:24;0.50;;;0.30;;
7497;SDS011;3790;48.806;9.140;2022-09-17T00:10:25;0.70;;;0.40;;
7497;SDS011;3790;48.806;9.140;2022-09-17T00:15:26;1.07;;;0.50;;
7497;SDS011;3790;48.806;9.140;2022-09-17T00:20:26;0.20;;;0.20;;
7497;SDS011;3790;48.806;9.140;2022-09-17T00:25:27;0.93;;;0.47;;
7497;SDS011;3790;48.806;9.140;2022-09-17T00:30:27;0.90;;;0.40;;
7497;SDS011;3790;48.806;9.140;2022-09-17T00:35:28;1.00;;;0.47;;
7497;SDS011;3790;48.806;9.140;2022-09-17T00:40:28;0.33;;;0.30;;
7497;SDS011;3790;48.806;9.140;2022-09-17T00:45:29;0.27;;;0.20;;
7497;SDS011;3790;48.806;9.140;2022-09-17T00:50:35;0.97;;;0.50;;
7497;SDS011;3790;48.806;9.140;2022-09-17T00:55:43;1.10;;;0.50;;
7497;SDS011;3790;48.806;9.140;2022-09-17T01:00:47;1.43;;;0.60;;
7497;SDS011;3790;48.806;9.140;2022-09-17T01:05:49;1.80;;;0.70;;
7497;SDS011;3790;48.806;9.140;2022-09-17T01:16:47;1.93;;;0.50;;
7497;SDS011;3790;48.806;9.140;2022-09-17T01:22:05;4.17;;;0.70;;
7497;SDS011;3790;48.806;9.140;2022-09-17T01:32:15;1.30;;;0.50;;
7497;SDS011;3790;48.806;9.140;2022-09-17T01:37:42;0.47;;;0.40;;
7497;SDS011;3790;48.806;9.140;2022-09-17T01:43:05;0.90;;;0.50;;
7497;SDS011;3790;48.806;9.140;2022-09-17T01:53:19;0.60;;;0.57;;
7497;SDS011;3790;48.806;9.140;2022-09-17T01:58:28;1.73;;;0.67;;
7497;SDS011;3790;48.806;9.140;2022-09-17T02:03:36;0.90;;;0.50;;
7497;SDS011;3790;48.806;9.140;2022-09-17T02:08:46;0.80;;;0.50;;
7497;SDS011;3790;48.806;9.140;2022-09-17T02:14:02;1.27;;;0.60;;
7497;SDS011;3790;48.806;9.140;2022-09-17T02:29:43;0.60;;;0.40;;
7497;SDS011;3790;48.806;9.140;2022-09-17T02:34:44;0.67;;;0.40;;
7497;SDS011;3790;48.806;9.140;2022-09-17T02:39:46;0.57;;;0.40;;
7497;SDS011;3790;48.806;9.140;2022-09-17T02:55:40;0.93;;;0.50;;
7497;SDS011;3790;48.806;9.140;2022-09-17T03:01:24;3.23;;;0.57;;
7497;SDS011;3790;48.806;9.140;2022-09-17T03:06:31;0.73;;;0.47;;
7497;SDS011;3790;48.806;9.140;2022-09-17T03:11:32;0.90;;;0.40;;
7497;SDS011;3790;48.806;9.140;2022-09-17T03:16:32;3.00;;;0.67;;
7497;SDS011;3790;48.806;9.140;2022-09-17T03:21:33;2.03;;;0.70;;
7497;SDS011;3790;48.806;9.140;2022-09-17T03:26:33;3.83;;;0.80;;
7497;SDS011;3790;48.806;9.140;2022-09-17T03:31:34;0.40;;;0.40;;
7497;SDS011;3790;48.806;9.140;2022-09-17T03:36:34;1.17;;;0.60;;
7497;SDS011;3790;48.806;9.140;2022-09-17T03:41:35;1.30;;;0.70;;
7497;SDS011;3790;48.806;9.140;2022-09-17T03:46:35;2.20;;;0.87;;
7497;SDS011;3790;48.806;9.140;2022-09-17T03:51:36;1.70;;;0.60;;
7497;SDS011;3790;48.806;9.140;2022-09-17T03:56:37;1.10;;;0.70;;
7497;SDS011;3790;48.806;9.140;2022-09-17T04:01:37;2.07;;;0.77;;
7497;SDS011;3790;48.806;9.140;2022-09-17T04:06:38;3.60;;;0.77;;
7497;SDS011;3790;48.806;9.140;2022-09-17T04:11:38;3.57;;;0.70;;
7497;SDS011;3790;48.806;9.140;2022-09-17T04:16:39;0.90;;;0.57;;
7497;SDS011;3790;48.806;9.140;2022-09-17T04:21:39;7.13;;;0.87;;
7497;SDS011;3790;48.806;9.140;2022-09-17T04:26:40;3.20;;;0.60;;
7497;SDS011;3790;48.806;9.140;2022-09-17T04:31:40;1.33;;;0.67;;
7497;SDS011;3790;48.806;9.140;2022-09-17T04:36:41;6.10;;;0.80;;
7497;SDS011;3790;48.806;9.140;2022-09-17T04:41:41;1.27;;;0.70;;
7497;SDS011;3790;48.806;9.140;2022-09-17T04:46:42;1.07;;;0.67;;
7497;SDS011;3790;48.806;9.140;2022-09-17T04:51:43;1.33;;;0.67;;
7497;SDS011;3790;48.806;9.140;2022-09-17T04:56:43;2.30;;;0.70;;
7497;SDS011;3790;48.806;9.140;2022-09-17T05:01:44;1.57;;;0.60;;
7497;SDS011;3790;48.806;9.140;2022-09-17T05:06:44;3.00;;;1.03;;
7497;SDS011;3790;48.806;9.140;2022-09-17T05:11:45;1.03;;;0.60;;
7497;SDS011;3790;48.806;9.140;2022-09-17T05:16:45;1.40;;;0.70;;
7497;SDS011;3790;48.806;9.140;2022-09-17T05:21:46;0.93;;;0.60;;
7497;SDS011;3790;48.806;9.140;2022-09-17T05:26:46;3.30;;;1.23;;
7497;SDS011;3790;48.806;9.140;2022-09-17T05:31:47;2.10;;;0.47;;
7497;SDS011;3790;48.806;9.140;2022-09-17T05:36:47;1.80;;;0.60;;
7497;SDS011;3790;48.806;9.140;2022-09-17T05:41:48;1.37;;;0.70;;
7497;SDS011;3790;48.806;9.140;2022-09-17T05:46:51;0.83;;;0.60;;
7497;SDS011;3790;48.806;9.140;2022-09-17T05:51:52;3.73;;;0.97;;
7497;SDS011;3790;48.806;9.140;2022-09-17T05:56:52;1.70;;;0.70;;
7497;SDS011;3790;48.806;9.140;2022-09-17T06:01:53;1.23;;;0.80;;
7497;SDS011;3790;48.806;9.140;2022-09-17T06:06:53;3.33;;;0.97;;
7497;SDS011;3790;48.806;9.140;2022-09-17T06:11:54;3.17;;;1.07;;
7497;SDS011;3790;48.806;9.140;2022-09-17T06:16:54;1.83;;;0.80;;
7497;SDS011;3790;48.806;9.140;2022-09-17T06:21:55;0.87;;;0.60;;
7497;SDS011;3790;48.806;9.140;2022-09-17T06:26:56;1.93;;;0.90;;
7497;SDS011;3790;48.806;9.140;2022-09-17T06:31:56;2.67;;;0.90;;
7497;SDS011;3790;48.806;9.140;2022-09-17T06:36:57;1.27;;;0.60;;
7497;SDS011;3790;48.806;9.140;2022-09-17T06:41:57;3.30;;;0.90;;
7497;SDS011;3790;48.806;9.140;2022-09-17T06:46:58;1.17;;;0.70;;
7497;SDS011;3790;48.806;9.140;2022-09-17T06:51:58;1.47;;;0.87;;
7497;SDS011;3790;48.806;9.140;2022-09-17T06:56:59;2.43;;;0.80;;
7497;SDS011;3790;48.806;9.140;2022-09-17T07:01:59;1.37;;;0.70;;
7497;SDS011;3790;48.806;9.140;2022-09-17T07:07:00;2.70;;;0.87;;
7497;SDS011;3790;48.806;9.140;2022-09-17T07:12:00;1.73;;;0.80;;
7497;SDS011;3790;48.806;9.140;2022-09-17T07:17:05;1.97;;;0.60;;
7497;SDS011;3790;48.806;9.140;2022-09-17T07:22:06;1.43;;;0.97;;
7497;SDS011;3790;48.806;9.140;2022-09-17T07:27:07;2.83;;;0.90;;
7497;SDS011;3790;48.806;9.140;2022-09-17T07:32:07;1.27;;;0.80;;
7497;SDS011;3790;48.806;9.140;2022-09-17T07:37:08;2.60;;;0.90;;
7497;SDS011;3790;48.806;9.140;2022-09-17T07:42:08;2.70;;;0.77;;
7497;SDS011;3790;48.806;9.140;2022-09-17T07:47:09;1.23;;;0.80;;
7497;SDS011;3790;48.806;9.140;2022-09-17T07:52:10;3.13;;;1.00;;
7497;SDS011;3790;48.806;9.140;2022-09-17T07:57:10;0.97;;;0.53;;
7497;SDS011;3790;48.806;9.140;2022-09-17T08:02:11;1.70;;;1.00;;
7497;SDS011;3790;48.806;9.140;2022-09-17T08:07:13;1.27;;;0.80;;
7497;SDS011;3790;48.806;9.140;2022-09-17T08:12:13;0.90;;;0.70;;
7497;SDS011;3790;48.806;9.140;2022-09-17T08:17:14;2.07;;;1.03;;
7497;SDS011;3790;48.806;9.140;2022-09-17T08:22:14;2.33;;;0.90;;
7497;SDS011;3790;48.806;9.140;2022-09-17T08:27:15;2.47;;;0.93;;
7497;SDS011;3790;48.806;9.140;2022-09-17T08:32:16;3.83;;;0.93;;
7497;SDS011;3790;48.806;9.140;2022-09-17T08:37:16;6.60;;;1.10;;
7497;SDS011;3790;48.806;9.140;2022-09-17T08:47:35;5.93;;;1.20;;
7497;SDS011;3790;48.806;9.140;2022-09-17T08:52:50;5.03;;;1.10;;
7497;SDS011;3790;48.806;9.140;2022-09-17T09:08:44;2.47;;;0.77;;
7497;SDS011;3790;48.806;9.140;2022-09-17T09:13:54;8.60;;;1.03;;
7497;SDS011;3790;48.806;9.140;2022-09-17T09:19:04;2.83;;;0.90;;
7497;SDS011;3790;48.806;9.140;2022-09-17T09:29:36;3.77;;;1.03;;
7497;SDS011;3790;48.806;9.140;2022-09-17T09:35:02;1.70;;;0.80;;
7497;SDS011;3790;48.806;9.140;2022-09-17T09:56:34;2.87;;;1.00;;
7497;SDS011;3790;48.806;9.140;2022-09-17T10:01:54;1.27;;;0.80;;
7497;SDS011;3790;48.806;9.140;2022-09-17T10:07:07;5.83;;;0.90;;
7497;SDS011;3790;48.806;9.140;2022-09-17T10:22:23;1.50;;;0.93;;
7497;SDS011;3790;48.806;9.140;2022-09-17T10:27:28;1.73;;;0.70;;
7497;SDS011;3790;48.806;9.140;2022-09-17T10:32:29;1.87;;;0.90;;
7497;SDS011;3790;48.806;9.140;2022-09-17T10:42:43;2.20;;;0.60;;
7497;SDS011;3790;48.806;9.140;2022-09-17T10:48:16;2.03;;;0.70;;
7497;SDS011;3790;48.806;9.140;2022-09-17T10:53:19;1.57;;;0.50;;
7497;SDS011;3790;48.806;9.140;2022-09-17T11:19:45;3.80;;;0.60;;
7497;SDS011;3790;48.806;9.140;2022-09-17T11:30:47;1.30;;;0.60;;
7497;SDS011;3790;48.806;9.140;2022-09-17T11:36:09;0.97;;;0.50;;
7497;SDS011;3790;48.806;9.140;2022-09-17T11:41:15;1.17;;;0.40;;
7497;SDS011;3790;48.806;9.140;2022-09-17T11:46:29;1.60;;;0.53;;
7497;SDS011;3790;48.806;9.140;2022-09-17T11:52:25;1.55;;;0.50;;
7497;SDS011;3790;48.806;9.140;2022-09-17T11:57:21;2.25;;;0.60;;
7497;SDS011;3790;48.806;9.140;2022-09-17T12:08:13;11.35;;;0.68;;
7497;SDS011;3790;48.806;9.140;2022-09-17T12:19:03;1.90;;;0.67;;
7497;SDS011;3790;48.806;9.140;2022-09-17T12:24:16;1.27;;;0.50;;
7497;SDS011;3790;48.806;9.140;2022-09-17T12:34:53;2.23;;;0.33;;
7497;SDS011;3790;48.806;9.140;2022-09-17T12:45:33;0.97;;;0.67;;
7497;SDS011;3790;48.806;9.140;2022-09-17T12:56:45;0.33;;;0.30;;
7497;SDS011;3790;48.806;9.140;2022-09-17T13:18:31;0.93;;;0.57;;
7497;SDS011;3790;48.806;9.140;2022-09-17T13:23:44;0.47;;;0.37;;
7497;SDS011;3790;48.806;9.140;2022-09-17T13:28:50;0.30;;;0.23;;
7497;SDS011;3790;48.806;9.140;2022-09-17T13:33:52;1.17;;;0.47;;
7497;SDS011;3790;48.806;9.140;2022-09-17T13:38:53;1.03;;;0.30;;
7497;SDS011;3790;48.806;9.140;2022-09-17T13:43:54;0.43;;;0.30;;
7497;SDS011;3790;48.806;9.140;2022-09-17T13:48:57;1.30;;;0.30;;
7497;SDS011;3790;48.806;9.140;2022-09-17T13:54:01;1.17;;;0.40;;
7497;SDS011;3790;48.806;9.140;2022-09-17T13:59:37;0.93;;;0.30;;
7497;SDS011;3790;48.806;9.140;2022-09-17T14:15:35;1.17;;;0.50;;
7497;SDS011;3790;48.806;9.140;2022-09-17T14:20:39;1.60;;;0.50;;
7497;SDS011;3790;48.806;9.140;2022-09-17T14:25:42;0.67;;;0.40;;
7497;SDS011;3790;48.806;9.140;2022-09-17T14:30:51;1.17;;;0.40;;
7497;SDS011;3790;48.806;9.140;2022-09-17T14:35:54;0.50;;;0.20;;
7497;SDS011;3790;48.806;9.140;2022-09-17T14:41:02;0.75;;;0.40;;
7497;SDS011;3790;48.806;9.140;2022-09-17T14:46:53;1.00;;;0.50;;
7497;SDS011;3790;48.806;9.140;2022-09-17T14:51:38;0.70;;;0.40;;
7497;SDS011;3790;48.806;9.140;2022-09-17T14:56:50;1.20;;;0.60;;
7497;SDS011;3790;48.806;9.140;2022-09-17T15:01:51;0.67;;;0.40;;
7497;SDS011;3790;48.806;9.140;2022-09-17T15:06:52;0.50;;;0.30;;
7497;SDS011;3790;48.806;9.140;2022-09-17T15:12:04;2.92;;;0.65;;
7497;SDS011;3790;48.806;9.140;2022-09-17T15:17:06;1.10;;;0.50;;
7497;SDS011;3790;48.806;9.140;2022-09-17T15:22:27;1.37;;;0.50;;
7497;SDS011;3790;48.806;9.140;2022-09-17T15:27:40;0.70;;;0.40;;
7497;SDS011;3790;48.806;9.140;2022-09-17T15:32:47;1.10;;;0.63;;
7497;SDS011;3790;48.806;9.140;2022-09-17T15:37:51;4.23;;;0.77;;
7497;SDS011;3790;48.806;9.140;2022-09-17T15:53:27;5.00;;;0.67;;
7497;SDS011;3790;48.806;9.140;2022-09-17T15:58:30;0.65;;;0.35;;
7497;SDS011;3790;48.806;9.140;2022-09-17T16:08:40;2.90;;;0.53;;
7497;SDS011;3790;48.806;9.140;2022-09-17T16:13:41;2.57;;;0.50;;
7497;SDS011;3790;48.806;9.140;2022-09-17T16:18:42;0.67;;;0.40;;
7497;SDS011;3790;48.806;9.140;2022-09-17T16:23:43;1.40;;;0.40;;
7497;SDS011;3790;48.806;9.140;2022-09-17T16:28:45;3.20;;;0.55;;
7497;SDS011;3790;48.806;9.140;2022-09-17T16:33:47;1.52;;;0.57;;
7497;SDS011;3790;48.806;9.140;2022-09-17T16:38:47;0.30;;;0.30;;
7497;SDS011;3790;48.806;9.140;2022-09-17T16:43:48;1.13;;;0.53;;
7497;SDS011;3790;48.806;9.140;2022-09-17T16:48:49;0.67;;;0.40;;
7497;SDS011;3790;48.806;9.140;2022-09-17T16:53:50;1.13;;;0.50;;
7497;SDS011;3790;48.806;9.140;2022-09-17T16:58:53;2.30;;;0.80;;
7497;SDS011;3790;48.806;9.140;2022-09-17T17:03:54;2.30;;;0.60;;
7497;SDS011;3790;48.806;9.140;2022-09-17T17:08:58;1.57;;;0.57;;
7497;SDS011;3790;48.806;9.140;2022-09-17T17:14:01;1.73;;;0.60;;
7497;SDS011;3790;48.806;9.140;2022-09-17T17:19:04;1.60;;;0.70;;
7497;SDS011;3790;48.806;9.140;2022-09-17T17:24:05;1.53;;;0.70;;
7497;SDS011;3790;48.806;9.140;2022-09-17T17:29:06;2.03;;;0.60;;
7497;SDS011;3790;48.806;9.140;2022-09-17T17:34:07;1.87;;;0.50;;
7497;SDS011;3790;48.806;9.140;2022-09-17T17:39:07;4.30;;;0.67;;
7497;SDS011;3790;48.806;9.140;2022-09-17T17:44:08;1.40;;;0.70;;
7497;SDS011;3790;48.806;9.140;2022-09-17T17:49:11;1.27;;;0.50;;
7497;SDS011;3790;48.806;9.140;2022-09-17T17:54:12;1.60;;;0.53;;
7497;SDS011;3790;48.806;9.140;2022-09-17T17:59:12;2.67;;;0.60;;
7497;SDS011;3790;48.806;9.140;2022-09-17T18:04:13;1.37;;;0.50;;
7497;SDS011;3790;48.806;9.140;2022-09-17T18:09:13;1.00;;;0.70;;
7497;SDS011;3790;48.806;9.140;2022-09-17T18:14:14;0.90;;;0.47;;
7497;SDS011;3790;48.806;9.140;2022-09-17T18:19:14;0.67;;;0.50;;
7497;SDS011;3790;48.806;9.140;2022-09-17T18:24:15;3.43;;;0.60;;
7497;SDS011;3790;48.806;9.140;2022-09-17T18:29:16;1.53;;;0.60;;
7497;SDS011;3790;48.806;9.140;2022-09-17T18:34:16;1.07;;;0.53;;
7497;SDS011;3790;48.806;9.140;2022-09-17T18:39:17;2.20;;;0.60;;
7497;SDS011;3790;48.806;9.140;2022-09-17T18:44:19;0.70;;;0.50;;
7497;SDS011;3790;48.806;9.140;2022-09-17T18:49:20;1.03;;;0.60;;
7497;SDS011;3790;48.806;9.140;2022-09-17T18:54:21;0.60;;;0.50;;
7497;SDS011;3790;48.806;9.140;2022-09-17T18:59:21;1.07;;;0.60;;
7497;SDS011;3790;48.806;9.140;2022-09-17T19:04:22;1999.90;;;999.90;;
7497;SDS011;3790;48.806;9.140;2022-09-17T19:09:22;1999.90;;;999.90;;
7497;SDS011;3790;48.806;9.140;2022-09-17T19:14:23;1999.90;;;999.90;;
7497;SDS011;3790;48.806;9.140;2022-09-17T19:19:23;1999.90;;;999.90;;
7497;SDS011;3790;48.806;9.140;2022-09-17T19:24:24;1999.90;;;999.90;;
7497;SDS011;3790;48.806;9.140;2022-09-17T19:29:24;1999.90;;;999.90;;
7497;SDS011;3790;48.806;9.140;2022-09-17T19:34:25;1999.90;;;999.90;;
7497;SDS011;3790;48.806;9.140;2022-09-17T19:39:25;1999.90;;;999.90;;
7497;SDS011;3790;48.806;9.140;2022-09-17T19:44:26;1999.90;;;999.90;;
7497;SDS011;3790;48.806;9.140;2022-09-17T19:49:27;1999.90;;;999.90;;
7497;SDS011;3790;48.806;9.140;2022-09-17T19:54:27;1999.90;;;999.90;;
7497;SDS011;3790;48.806;9.140;2022-09-17T19:59:28;1999.90;;;999.90;;
7497;SDS011;3790;48.806;9.140;2022-09-17T20:04:28;1999.90;;;999.90;;
7497;SDS011;3790;48.806;9.140;2022-09-17T20:09:29;1999.90;;;999.90;;
7497;SDS011;3790;48.806;9.140;2022-09-17T20:14:30;1999.90;;;999.90;;
7497;SDS011;3790;48.806;9.140;2022-09-17T20:19:31;1999.90;;;999.90;;
7497;SDS011;3790;48.806;9.140;2022-09-17T20:24:31;1999.90;;;999.90;;
7497;SDS011;3790;48.806;9.140;2022-09-17T20:29:32;1999.90;;;999.90;;
7497;SDS011;3790;48.806;9.140;2022-09-17T20:34:33;1999.90;;;999.90;;
7497;SDS011;3790;48.806;9.140;2022-09-17T20:39:33;1999.90;;;999.90;;
7497;SDS011;3790;48.806;9.140;2022-09-17T20:44:34;1999.90;;;999.90;;
7497;SDS011;3790;48.806;9.140;2022-09-17T20:49:34;1999.90;;;999.90;;
7497;SDS011;3790;48.806;9.140;2022-09-17T20:54:35;1999.90;;;999.90;;
7497;SDS011;3790;48.806;9.140;2022-09-17T20:59:35;1999.90;;;999.90;;
7497;SDS011;3790;48.806;9.140;2022-09-17T21:05:02;1999.90;;;999.90;;
7497;SDS011;3790;48.806;9.140;2022-09-17T21:10:03;1999.90;;;999.90;;
7497;SDS011;3790;48.806;9.140;2022-09-17T21:15:04;1999.90;;;999.90;;
7497;SDS011;3790;48.806;9.140;2022-09-17T21:20:05;1999.90;;;999.90;;
7497;SDS011;3790;48.806;9.140;2022-09-17T21:25:06;1999.90;;;999.90;;
7497;SDS011;3790;48.806;9.140;2022-09-17T21:30:07;1999.90;;;999.90;;
7497;SDS011;3790;48.806;9.140;2022-09-17T21:35:08;1999.90;;;999.90;;
7497;SDS011;3790;48.806;9.140;2022-09-17T21:40:09;1999.90;;;999.90;;
7497;SDS011;3790;48.806;9.140;2022-09-17T21:45:09;1999.90;;;999.90;;
7497;SDS011;3790;48.806;9.140;2022-09-17T21:50:10;1999.90;;;999.90;;
7497;SDS011;3790;48.806;9.140;2022-09-17T21:55:10;1999.90;;;999.90;;
7497;SDS011;3790;48.806;9.140;2022-09-17T22:00:11;1999.90;;;999.90;;
7497;SDS011;3790;48.806;9.140;2022-09-17T22:05:12;1999.90;;;999.90;;
7497;SDS011;3790;48.806;9.140;2022-09-17T22:10:13;1999.90;;;999.90;;
7497;SDS011;3790;48.806;9.140;2022-09-17T22:15:14;1999.90;;;999.90;;
7497;SDS011;3790;48.806;9.140;2022-09-17T22:20:15;1999.90;;;999.90;;
7497;SDS011;3790;48.806;9.140;2022-09-17T22:25:15;1999.90;;;999.90;;
7497;SDS011;3790;48.806;9.140;2022-09-17T22:30:16;1999.90;;;999.90;;
7497;SDS011;3790;48.806;9.140;2022-09-17T22:35:16;1999.90;;;999.90;;
7497;SDS011;3790;48.806;9.140;2022-09-17T22:40:17;1999.90;;;999.90;;
7497;SDS011;3790;48.806;9.140;2022-09-17T22:45:17;1999.90;;;999.90;;
7497;SDS011;3790;48.806;9.140;2022-09-17T22:50:18;1999.90;;;999.90;;
7497;SDS011;3790;48.806;9.140;2022-09-17T22:55:18;1999.90;;;999.90;;
7497;SDS011;3790;48.806;9.140;2022-09-17T23:00:19;1999.90;;;999.90;;
7497;SDS011;3790;48.806;9.140;2022-09-17T23:05:19;1999.90;;;999.90;;
7497;SDS011;3790;48.806;9.140;2022-09-17T23:10:20;1999.90;;;999.90;;
7497;SDS011;3790;48.806;9.140;2022-09-17T23:15:20;1999.90;;;999.90;;
7497;SDS011;3790;48.806;9.140;2022-09-17T23:20:25;1999.90;;;999.90;;
7497;SDS011;3790;48.806;9.140;2022-09-17T23:25:26;1999.90;;;999.90;;
7497;SDS011;3790;48.806;9.140;2022-09-17T23:30:26;1999.90;;;999.90;;
7497;SDS011;3790;48.806;9.140;2022-09-17T23:35:27;1999.90;;;999.90;;
7497;SDS011;3790;48.806;9.140;2022-09-17T23:40:28;1999.90;;;999.90;;
7497;SDS011;3790;48.806;9.140;2022-09-17T23:45:28;1999.90;;;999.90;;
7497;SDS011;3790;48.806;9.140;2022-09-17T23:50:29;1999.90;;;999.90;;
7497;SDS011;3790;48.806;9.140;2022-09-17T23:55:29;1999.90;;;999.90;;
